createdAt,value
2022-12-28T00:03:09.813Z,3.8
2022-12-28T00:08:09.859Z,2.6
2022-12-28T00:13:09.756Z,2.8
2022-12-28T00:18:09.823Z,3.6
2022-12-28T00:23:09.774Z,4.2
2022-12-28T00:28:09.866Z,4.2
2022-12-28T00:33:09.745Z,2.9
2022-12-28T00:38:09.842Z,3.8
2022-12-28T00:43:09.772Z,4.7
2022-12-28T00:48:09.820Z,3.6
2022-12-28T00:53:09.781Z,4.0
2022-12-28T00:58:09.831Z,4.0
2022-12-28T01:03:09.841Z,7.8
2022-12-28T01:13:09.777Z,3.3
2022-12-28T01:18:09.871Z,5.6
2022-12-28T01:23:09.782Z,3.5
2022-12-28T01:28:09.884Z,3.5
2022-12-28T01:33:09.785Z,8.2
2022-12-28T01:38:09.851Z,11.5
2022-12-28T01:48:09.938Z,5.6
2022-12-28T01:53:09.800Z,8.7
2022-12-28T01:58:09.849Z,8.7
2022-12-28T02:03:09.896Z,14.1
2022-12-28T02:08:09.835Z,10.1
2022-12-28T02:13:09.841Z,11.4
2022-12-28T02:18:09.882Z,10.9
2022-12-28T02:23:09.771Z,8.6
2022-12-28T02:28:09.899Z,8.6
2022-12-28T02:33:09.799Z,11.6
2022-12-28T02:38:09.876Z,13.2
2022-12-28T02:48:09.883Z,8.4
2022-12-28T02:53:09.829Z,7.1
2022-12-28T02:58:09.844Z,7.1
2022-12-28T03:03:09.822Z,6.8
2022-12-28T03:08:09.868Z,7.4
2022-12-28T03:13:09.815Z,7.4
2022-12-28T03:18:09.893Z,8.5
2022-12-28T03:23:09.817Z,8.2
2022-12-28T03:28:09.908Z,8.2
2022-12-28T03:33:09.837Z,5.2
2022-12-28T03:43:09.808Z,9.0
2022-12-28T03:48:09.893Z,6.1
2022-12-28T03:53:09.816Z,7.6
2022-12-28T03:58:09.895Z,7.6
2022-12-28T04:03:09.863Z,7.5
2022-12-28T04:08:09.909Z,9.7
2022-12-28T04:13:09.790Z,5.5
2022-12-28T04:18:09.872Z,11.0
2022-12-28T04:23:09.818Z,7.9
2022-12-28T04:28:09.929Z,7.9
2022-12-28T04:33:09.810Z,8.0
2022-12-28T04:38:09.906Z,10.9
2022-12-28T04:43:09.803Z,9.2
2022-12-28T04:48:09.909Z,9.1
2022-12-28T04:58:09.916Z,8.3
2022-12-28T05:03:09.829Z,13.0
2022-12-28T05:08:09.916Z,5.9
2022-12-28T05:13:09.812Z,15.3
2022-12-28T05:18:09.914Z,15.5
2022-12-28T05:23:09.830Z,14.1
2022-12-28T05:28:09.899Z,14.1
2022-12-28T05:33:09.833Z,12.7
2022-12-28T05:38:09.930Z,10.3
2022-12-28T05:43:09.819Z,10.5
2022-12-28T05:48:10.018Z,5.6
2022-12-28T05:53:09.833Z,5.8
2022-12-28T05:58:09.894Z,5.8
2022-12-28T06:03:09.932Z,8.1
2022-12-28T06:08:09.901Z,8.5
2022-12-28T06:13:09.830Z,6.9
2022-12-28T06:18:09.890Z,10.9
2022-12-28T06:28:09.947Z,7.6
2022-12-28T06:33:09.833Z,11.9
2022-12-28T06:38:09.929Z,11.0
2022-12-28T06:43:09.851Z,12.5
2022-12-28T06:48:09.922Z,11.4
2022-12-28T06:53:09.834Z,12.1
2022-12-28T06:58:09.920Z,12.1
2022-12-28T07:03:09.848Z,9.9
2022-12-28T07:08:12.732Z,10.4
2022-12-28T07:13:09.852Z,10.8
2022-12-28T07:18:09.982Z,10.8
2022-12-28T07:23:09.820Z,8.0
2022-12-28T07:28:09.907Z,8.0
2022-12-28T07:33:09.828Z,3.8
2022-12-28T07:43:09.850Z,6.4
2022-12-28T07:48:09.946Z,6.8
2022-12-28T07:58:10.024Z,5.8
2022-12-28T08:03:09.927Z,5.8
2022-12-28T08:08:09.899Z,7.6
2022-12-28T08:13:09.855Z,6.0
2022-12-28T08:23:09.840Z,7.5
2022-12-28T08:28:09.907Z,7.5
2022-12-28T08:33:09.841Z,3.4
2022-12-28T08:38:09.905Z,5.5
2022-12-28T08:43:09.846Z,3.0
2022-12-28T08:48:09.891Z,4.6
2022-12-28T08:53:09.855Z,5.7
2022-12-28T08:58:09.900Z,5.7
2022-12-28T09:03:10.055Z,7.1
2022-12-28T09:08:09.938Z,5.0
2022-12-28T09:13:09.845Z,6.5
2022-12-28T09:18:09.938Z,6.1
2022-12-28T09:23:09.842Z,4.1
2022-12-28T09:28:09.911Z,4.1
2022-12-28T09:38:09.920Z,5.8
2022-12-28T09:43:09.868Z,7.1
2022-12-28T09:48:09.947Z,8.4
2022-12-28T09:53:09.874Z,8.3
2022-12-28T09:58:09.953Z,8.3
2022-12-28T10:03:09.936Z,8.5
2022-12-28T10:08:09.958Z,7.4
2022-12-28T10:13:37.033Z,11.6
2022-12-28T10:18:09.951Z,9.3
2022-12-28T10:23:09.871Z,7.8
2022-12-28T10:28:09.928Z,7.8
2022-12-28T10:33:13.857Z,6.1
2022-12-28T10:38:09.917Z,7.2
2022-12-28T10:43:11.260Z,10.6
2022-12-28T10:48:09.923Z,5.3
2022-12-28T10:53:09.868Z,5.1
2022-12-28T10:58:29.981Z,5.1
2022-12-28T11:03:09.921Z,4.1
2022-12-28T11:08:09.919Z,3.5
2022-12-28T11:13:09.916Z,5.3
2022-12-28T11:18:09.921Z,1.2
2022-12-28T11:23:09.866Z,1.4
2022-12-28T11:28:10.057Z,1.4
2022-12-28T11:33:09.908Z,2.1
2022-12-28T11:43:09.928Z,2.5
2022-12-28T11:48:09.941Z,2.7
2022-12-28T11:53:13.809Z,3.9
2022-12-28T11:58:09.974Z,3.9
2022-12-28T12:03:09.900Z,2.8
2022-12-28T12:08:09.952Z,3.0
2022-12-28T12:13:09.950Z,5.5
2022-12-28T12:18:09.980Z,5.0
2022-12-28T12:23:09.875Z,3.2
2022-12-28T12:28:09.992Z,3.2
2022-12-28T12:33:09.886Z,1.8
2022-12-28T12:38:09.959Z,3.5
2022-12-28T12:43:09.900Z,3.4
2022-12-28T12:48:10.064Z,3.6
2022-12-28T12:58:09.949Z,1.9
2022-12-28T13:03:10.023Z,3.2
2022-12-28T13:08:09.956Z,1.7
2022-12-28T13:13:09.905Z,4.3
2022-12-28T13:23:09.947Z,2.2
2022-12-28T13:28:09.966Z,2.2
2022-12-28T13:33:09.909Z,1.9
2022-12-28T13:38:09.964Z,5.0
2022-12-28T13:43:09.917Z,3.6
2022-12-28T13:48:10.026Z,1.6
2022-12-28T13:53:09.935Z,3.4
2022-12-28T14:03:09.911Z,2.3
2022-12-28T14:08:09.996Z,1.9
2022-12-28T14:13:09.968Z,2.5
2022-12-28T14:18:09.918Z,2.4
2022-12-28T14:28:10.000Z,1.7
2022-12-28T14:38:10.086Z,3.8
2022-12-28T14:43:09.925Z,3.6
2022-12-28T14:48:10.019Z,3.4
2022-12-28T14:53:09.939Z,4.3
2022-12-28T14:58:09.982Z,4.3
2022-12-28T15:03:10.076Z,1.5
2022-12-28T15:08:09.989Z,7.1
2022-12-28T15:13:09.916Z,4.0
2022-12-28T15:18:10.008Z,3.4
2022-12-28T15:23:09.906Z,3.0
2022-12-28T15:28:09.984Z,3.0
2022-12-28T15:33:09.924Z,1.8
2022-12-28T15:38:09.996Z,2.9
2022-12-28T15:48:09.990Z,2.3
2022-12-28T15:53:09.924Z,2.4
2022-12-28T15:58:10.019Z,2.4
2022-12-28T16:03:10.021Z,2.2
2022-12-28T16:08:10.058Z,1.3
2022-12-28T16:13:09.943Z,1.4
2022-12-28T16:18:10.002Z,0.8
2022-12-28T16:23:09.937Z,1.9
2022-12-28T16:33:09.933Z,1.6
2022-12-28T16:43:09.937Z,3.4
2022-12-28T16:48:10.005Z,2.1
2022-12-28T16:53:09.929Z,2.5
2022-12-28T17:08:10.062Z,5.4
2022-12-28T17:13:09.941Z,7.8
2022-12-28T17:23:09.925Z,8.9
2022-12-28T17:28:10.010Z,8.9
2022-12-28T17:33:09.949Z,5.5
2022-12-28T17:38:10.008Z,6.9
2022-12-28T17:43:09.963Z,5.3
2022-12-28T17:48:10.009Z,5.3
2022-12-28T17:58:10.006Z,6.3
2022-12-28T18:03:10.021Z,5.6
2022-12-28T18:08:10.043Z,6.7
2022-12-28T18:13:09.946Z,7.8
2022-12-28T18:18:10.004Z,7.2
2022-12-28T18:23:09.957Z,9.1
2022-12-28T18:28:10.011Z,9.1
2022-12-28T18:33:09.951Z,16.4
2022-12-28T18:38:10.050Z,6.4
2022-12-28T18:43:09.948Z,9.7
2022-12-28T18:53:09.939Z,11.3
2022-12-28T18:58:10.003Z,11.3
2022-12-28T19:03:10.092Z,14.9
2022-12-28T19:08:10.003Z,12.5
2022-12-28T19:23:09.943Z,19.0
2022-12-28T19:33:10.002Z,18.1
2022-12-28T19:38:10.011Z,19.1
2022-12-28T19:43:09.972Z,20.5
2022-12-28T19:48:10.031Z,18.7
2022-12-28T19:53:09.952Z,17.6
2022-12-28T20:03:10.075Z,16.9
2022-12-28T20:08:10.007Z,19.0
2022-12-28T20:13:09.971Z,13.9
2022-12-28T20:18:10.003Z,17.7
2022-12-28T20:23:09.962Z,25.0
2022-12-28T20:33:09.992Z,27.8
2022-12-28T20:38:10.113Z,18.2
2022-12-28T20:43:09.976Z,16.7
2022-12-28T20:48:10.054Z,21.8
2022-12-28T20:53:09.973Z,22.1
2022-12-28T20:58:10.049Z,22.1
2022-12-28T21:03:09.930Z,24.1
2022-12-28T21:13:09.956Z,20.4
2022-12-28T21:18:10.052Z,23.8
2022-12-28T21:28:10.066Z,23.2
2022-12-28T21:33:09.958Z,26.0
2022-12-28T21:38:10.024Z,24.6
2022-12-28T21:43:09.960Z,25.8
2022-12-28T21:53:09.961Z,21.0
2022-12-28T21:58:10.019Z,21.0
2022-12-28T22:08:10.040Z,23.5
2022-12-28T22:13:10.017Z,27.4
2022-12-28T22:18:15.755Z,21.3
2022-12-28T22:23:09.962Z,16.7
2022-12-28T22:28:10.065Z,16.7
2022-12-28T22:43:09.974Z,25.3
2022-12-28T22:53:09.924Z,21.5
2022-12-28T22:58:10.065Z,21.5
2022-12-28T23:03:10.060Z,17.0
2022-12-28T23:13:09.973Z,17.9
2022-12-28T23:18:10.025Z,18.2
2022-12-28T23:23:09.969Z,13.0
2022-12-28T23:28:10.089Z,13.0
2022-12-28T23:33:09.950Z,15.3
2022-12-28T23:38:10.062Z,14.5
2022-12-28T23:43:09.987Z,20.0
2022-12-28T23:48:10.032Z,14.8
2022-12-28T23:53:10.023Z,15.2
2022-12-28T23:58:10.063Z,15.2
